Aérodrome :
LOGIN :

S'inscrire | Disclaimer

   EN    FR    IT 

 










Légende :    VFR   VFR Marginal   IFR   IFR Intensif   IFR Très Intensif
Visi : 
Plafond : 
>= 8 km
>= 3000ft
5 à 8 km
1000 à 3000 ft
1500m à 5 km
500 à 1000 ft
800 à 1500m
200 à 500 ft
< 800m
< 200 ft
Symboles :   Orages  Brouillard  Fortes neiges  Fortes précipitations  Vent > 20 kt
SIGMETs :   Divers  Orages  Givrage  Turbulence  Onde Orograph.  Cendres Volcan.







- Altitude de l'aérodrome : 1325 ft
- Code IATA : EBU
- Voir les cartes d'approche


LFMH - St-Etienne Boutheon

DERNIER METAR :
  • 250030Z AUTO 00000KT CAVOK 11/08 Q1017

METARs EXPIRÉS :
  • 250000Z AUTO VRB01KT CAVOK 11/09 Q1017
  • 242330Z AUTO 17004KT CAVOK 10/08 Q1017
  • 242300Z AUTO 15002KT CAVOK 11/08 Q1017
  • 242230Z AUTO VRB03KT CAVOK 12/09 Q1017
  • 242200Z AUTO VRB02KT CAVOK 13/09 Q1017

TAF TAF LFMH
Valide du 24 à 15h jusqu'au 25 à 15h UTC


241400Z 2415/2515 04005KT 9999 SCT055
ATIS : +33 4 77 36 17 51
Pas de NOTAMs connus pour ce terrain.



MET'MAP, la Météo Aéronautique d'un coup d'oeil ! - Copyright ORBIFLY Décembre 2007 - Disclaimer

ORBIFLY MET'MAP TEAM :

Programmation & Développement : Alexandra Zaïnal
Conception & Développement : Baudouin d'Aumeries
Co-Programmation & Développement : Marc-Olivier Méhu
Soutien technique & logistique : Manuel Goepfert

Contact : metmap@orbifly.com




SOURCES & CREDITS :

   NOAA